createdAt,value
2018-11-06T00:00:46.718Z,82.90
2018-11-06T00:03:21.302Z,72.43
2018-11-06T00:05:50.629Z,79.50
2018-11-06T00:08:20.044Z,77.17
2018-11-06T00:10:49.388Z,80.47
2018-11-06T00:13:18.707Z,72.37
2018-11-06T00:15:48.126Z,78.33
2018-11-06T00:18:17.476Z,85.57
2018-11-06T00:20:46.836Z,80.93
2018-11-06T00:23:16.174Z,87.92
2018-11-06T00:25:45.550Z,92.67
2018-11-06T00:28:14.902Z,90.67
2018-11-06T00:30:44.199Z,92.77
2018-11-06T00:33:13.552Z,94.50
2018-11-06T00:35:42.893Z,92.23
2018-11-06T00:38:12.215Z,93.83
2018-11-06T00:40:41.589Z,93.60
2018-11-06T00:43:10.974Z,96.23
2018-11-06T00:45:40.389Z,92.13
2018-11-06T00:48:09.716Z,98.23
2018-11-06T00:50:39.047Z,103.83
2018-11-06T00:53:08.378Z,98.27
2018-11-06T00:55:37.803Z,97.93
2018-11-06T00:58:07.176Z,100.57
2018-11-06T01:00:36.464Z,96.87
2018-11-06T01:03:06.020Z,109.17
2018-11-06T01:05:35.305Z,101.87
2018-11-06T01:08:04.724Z,97.87
2018-11-06T01:10:34.022Z,94.53
2018-11-06T01:13:03.446Z,93.75
2018-11-06T01:15:32.775Z,94.20
2018-11-06T01:18:02.140Z,95.93
2018-11-06T01:20:31.520Z,93.62
2018-11-06T01:23:00.879Z,90.00
2018-11-06T01:25:30.242Z,92.73
2018-11-06T01:27:59.652Z,93.37
2018-11-06T01:30:29.034Z,97.63
2018-11-06T01:32:58.451Z,95.63
2018-11-06T01:35:27.749Z,93.00
2018-11-06T01:37:57.551Z,90.77
2018-11-06T01:40:27.652Z,94.22
2018-11-06T01:42:57.564Z,99.17
2018-11-06T01:45:27.625Z,106.45
2018-11-06T01:47:57.578Z,103.62
2018-11-06T01:50:27.672Z,103.78
2018-11-06T01:52:57.609Z,105.22
2018-11-06T01:55:27.617Z,107.70
2018-11-06T01:57:57.665Z,104.90
2018-11-06T02:00:27.731Z,102.62
2018-11-06T02:02:57.611Z,98.22
2018-11-06T02:05:27.645Z,105.97
2018-11-06T02:07:57.693Z,107.25
2018-11-06T02:10:27.761Z,104.87
2018-11-06T02:12:57.626Z,114.47
2018-11-06T02:15:27.638Z,96.30
2018-11-06T02:17:57.751Z,96.40
2018-11-06T02:20:27.713Z,96.85
2018-11-06T02:22:57.692Z,88.00
2018-11-06T02:25:30.679Z,84.62
2018-11-06T02:28:00.440Z,105.50
2018-11-06T02:30:29.821Z,89.73
2018-11-06T02:32:59.260Z,90.30
2018-11-06T02:35:28.630Z,80.97
2018-11-06T02:37:57.966Z,83.37
2018-11-06T02:40:27.736Z,83.12
2018-11-06T02:42:57.831Z,88.82
2018-11-06T02:45:27.606Z,72.05
2018-11-06T02:47:57.724Z,77.53
2018-11-06T02:50:27.686Z,70.57
2018-11-06T02:52:57.697Z,72.85
2018-11-06T02:55:27.727Z,80.30
2018-11-06T02:57:57.784Z,66.62
2018-11-06T03:00:27.732Z,64.62
2018-11-06T03:02:57.762Z,65.80
2018-11-06T03:05:27.873Z,69.60
2018-11-06T03:07:57.826Z,62.93
2018-11-06T03:10:27.822Z,78.35
2018-11-06T03:12:57.733Z,66.60
2018-11-06T03:15:29.210Z,65.40
2018-11-06T03:17:58.533Z,67.50
2018-11-06T03:20:27.823Z,63.87
2018-11-06T03:22:57.741Z,67.15
2018-11-06T03:25:27.747Z,64.47
2018-11-06T03:27:57.795Z,72.30
2018-11-06T03:30:27.810Z,66.53
2018-11-06T03:32:57.753Z,65.97
2018-11-06T03:35:27.869Z,64.82
2018-11-06T03:37:57.826Z,63.68
2018-11-06T03:40:27.825Z,66.85
2018-11-06T03:42:57.805Z,66.65
2018-11-06T03:45:27.791Z,65.97
2018-11-06T03:47:57.754Z,73.87
2018-11-06T03:50:27.917Z,67.55
2018-11-06T03:52:57.848Z,62.95
2018-11-06T03:55:27.791Z,71.53
2018-11-06T03:57:57.809Z,66.07
2018-11-06T04:00:27.861Z,69.92
2018-11-06T04:02:57.906Z,91.00
2018-11-06T04:05:27.874Z,65.00
2018-11-06T04:08:04.661Z,62.83
2018-11-06T04:10:34.023Z,66.33
2018-11-06T04:13:03.357Z,71.43
2018-11-06T04:15:32.713Z,64.90
2018-11-06T04:18:02.109Z,69.80
2018-11-06T04:20:31.449Z,63.40
2018-11-06T04:23:00.781Z,72.80
2018-11-06T04:25:30.116Z,61.43
2018-11-06T04:27:59.454Z,64.47
2018-11-06T04:30:28.789Z,65.00
2018-11-06T04:32:59.007Z,78.33
2018-11-06T04:35:28.367Z,75.40
2018-11-06T04:37:58.015Z,74.67
2018-11-06T04:40:27.936Z,68.85
2018-11-06T04:42:57.927Z,67.08
2018-11-06T04:45:27.914Z,67.20
2018-11-06T04:47:57.932Z,69.12
2018-11-06T04:50:27.945Z,70.50
2018-11-06T04:52:58.034Z,64.77
2018-11-06T04:55:28.025Z,65.37
2018-11-06T04:57:57.873Z,60.90
2018-11-06T05:00:28.007Z,63.75
2018-11-06T05:02:57.986Z,66.20
2018-11-06T05:05:27.995Z,67.58
2018-11-06T05:07:57.998Z,64.75
2018-11-06T05:10:27.996Z,66.05
2018-11-06T05:12:57.996Z,66.42
2018-11-06T05:15:28.025Z,75.28
2018-11-06T05:17:57.983Z,59.75
2018-11-06T05:20:28.013Z,67.80
2018-11-06T05:22:58.038Z,56.95
2018-11-06T05:25:28.180Z,58.02
2018-11-06T05:27:57.960Z,73.00
2018-11-06T05:30:27.994Z,57.23
2018-11-06T05:32:58.117Z,60.12
2018-11-06T05:35:28.020Z,58.73
2018-11-06T05:37:58.080Z,59.83
2018-11-06T05:40:45.105Z,59.60
2018-11-06T05:43:14.423Z,57.20
2018-11-06T05:45:43.837Z,78.03
2018-11-06T05:48:13.096Z,63.33
2018-11-06T05:50:42.422Z,54.63
2018-11-06T05:53:11.747Z,59.70
2018-11-06T05:55:41.201Z,55.43
2018-11-06T05:58:10.697Z,64.47
2018-11-06T06:00:40.478Z,54.77
2018-11-06T06:03:09.717Z,54.70
2018-11-06T06:05:45.696Z,50.60
2018-11-06T06:08:15.027Z,45.10
2018-11-06T06:10:44.413Z,46.37
2018-11-06T06:13:13.780Z,49.47
2018-11-06T06:15:43.155Z,43.40
2018-11-06T06:18:12.447Z,64.97
2018-11-06T06:20:41.820Z,44.53
2018-11-06T06:23:11.143Z,48.93
2018-11-06T06:25:40.558Z,51.23
2018-11-06T06:28:09.910Z,49.33
2018-11-06T06:30:39.487Z,41.87
2018-11-06T06:33:09.794Z,39.83
2018-11-06T06:35:45.500Z,73.23
2018-11-06T06:38:14.802Z,38.10
2018-11-06T06:40:44.189Z,42.78
2018-11-06T06:43:13.473Z,38.63
2018-11-06T06:45:42.781Z,40.27
2018-11-06T06:48:12.154Z,41.33
2018-11-06T06:50:41.683Z,41.98
2018-11-06T06:53:11.003Z,37.63
2018-11-06T06:55:40.323Z,40.43
2018-11-06T06:58:09.816Z,45.97
2018-11-06T07:00:39.159Z,36.68
2018-11-06T07:03:08.584Z,33.93
2018-11-06T07:05:37.882Z,36.90
2018-11-06T07:08:07.247Z,31.03
2018-11-06T07:10:36.679Z,36.00
2018-11-06T07:13:06.159Z,31.57
2018-11-06T07:15:35.501Z,33.73
2018-11-06T07:18:04.850Z,28.27
2018-11-06T07:20:34.183Z,29.77
2018-11-06T07:23:03.565Z,30.00
2018-11-06T07:25:32.938Z,28.27
2018-11-06T07:28:02.365Z,29.50
2018-11-06T07:30:31.742Z,32.07
2018-11-06T07:33:01.074Z,36.73
2018-11-06T07:35:30.666Z,27.27
2018-11-06T07:37:59.869Z,27.83
2018-11-06T07:40:29.283Z,28.13
2018-11-06T07:42:58.600Z,30.10
2018-11-06T07:45:28.341Z,27.48
2018-11-06T07:47:58.338Z,35.90
2018-11-06T07:50:28.394Z,27.20
2018-11-06T07:52:58.496Z,36.73
2018-11-06T07:55:28.438Z,34.38
2018-11-06T07:57:58.540Z,49.27
2018-11-06T08:00:28.399Z,32.03
2018-11-06T08:02:58.447Z,32.45
2018-11-06T08:05:28.383Z,37.73
2018-11-06T08:07:58.450Z,33.80
2018-11-06T08:10:28.479Z,32.73
2018-11-06T08:12:58.404Z,41.70
2018-11-06T08:15:28.334Z,32.60
2018-11-06T08:17:58.372Z,33.55
2018-11-06T08:20:28.499Z,34.95
2018-11-06T08:22:58.460Z,29.87
2018-11-06T08:25:28.540Z,35.13
2018-11-06T08:27:58.424Z,27.40
2018-11-06T08:30:28.531Z,25.77
2018-11-06T08:32:58.343Z,25.30
2018-11-06T08:35:28.361Z,26.95
2018-11-06T08:37:58.400Z,23.77
2018-11-06T08:40:28.492Z,30.08
2018-11-06T08:42:58.488Z,27.98
2018-11-06T08:45:28.429Z,32.25
2018-11-06T08:47:58.427Z,30.75
2018-11-06T08:50:28.816Z,27.45
2018-11-06T08:52:58.624Z,31.57
2018-11-06T08:55:28.792Z,29.00
2018-11-06T08:57:58.743Z,31.17
2018-11-06T09:00:28.762Z,32.98
2018-11-06T09:02:58.788Z,28.60
2018-11-06T09:05:28.765Z,32.23
2018-11-06T09:07:58.697Z,29.50
2018-11-06T09:10:28.705Z,29.57
2018-11-06T09:12:58.784Z,29.32
2018-11-06T09:15:28.741Z,33.40
2018-11-06T09:17:58.816Z,31.50
2018-11-06T09:20:28.868Z,32.53
2018-11-06T09:22:58.812Z,30.48
2018-11-06T09:25:28.738Z,40.75
2018-11-06T09:27:58.949Z,33.75
2018-11-06T09:30:28.860Z,36.55
2018-11-06T09:32:58.841Z,30.00
2018-11-06T09:35:28.828Z,34.85
2018-11-06T09:37:58.796Z,32.90
2018-11-06T09:42:58.848Z,34.23
2018-11-06T09:45:28.808Z,29.47
2018-11-06T09:47:58.873Z,38.60
2018-11-06T09:50:28.906Z,30.45
2018-11-06T09:52:58.881Z,28.57
2018-11-06T09:55:28.821Z,34.98
2018-11-06T09:57:58.950Z,44.30
2018-11-06T10:00:28.954Z,33.30
2018-11-06T10:02:58.880Z,40.28
2018-11-06T10:05:28.932Z,33.33
2018-11-06T10:07:59.042Z,32.93
2018-11-06T10:10:28.901Z,34.18
2018-11-06T10:12:58.866Z,37.83
2018-11-06T10:15:28.937Z,36.35
2018-11-06T10:17:58.898Z,41.98
2018-11-06T10:20:28.985Z,37.70
2018-11-06T10:22:58.920Z,37.58
2018-11-06T10:25:28.919Z,36.55
2018-11-06T10:27:58.920Z,36.77
2018-11-06T10:30:28.969Z,39.13
2018-11-06T10:32:58.899Z,35.40
2018-11-06T10:35:29.079Z,42.60
2018-11-06T10:37:59.062Z,33.70
2018-11-06T10:40:29.034Z,33.90
2018-11-06T10:42:59.045Z,32.88
2018-11-06T10:45:29.207Z,32.00
2018-11-06T10:48:02.720Z,35.03
2018-11-06T10:50:32.039Z,33.90
2018-11-06T10:53:01.397Z,34.33
2018-11-06T10:55:30.802Z,33.83
2018-11-06T10:58:00.109Z,32.70
2018-11-06T11:00:34.567Z,33.03
2018-11-06T11:03:11.856Z,34.65
2018-11-06T11:05:41.631Z,36.40
2018-11-06T11:08:11.002Z,32.50
2018-11-06T11:10:40.382Z,34.60
2018-11-06T11:13:09.807Z,32.67
2018-11-06T11:15:39.144Z,36.90
2018-11-06T11:18:08.562Z,34.77
2018-11-06T11:20:38.060Z,31.80
2018-11-06T11:23:07.754Z,31.43
2018-11-06T11:25:37.131Z,35.47
2018-11-06T11:28:06.482Z,37.70
2018-11-06T11:30:35.834Z,34.87
2018-11-06T11:33:05.585Z,36.83
2018-11-06T11:35:34.961Z,37.78
2018-11-06T11:38:04.352Z,39.00
2018-11-06T11:40:33.833Z,37.67
2018-11-06T11:43:03.253Z,37.23
2018-11-06T11:45:32.655Z,37.00
2018-11-06T11:48:02.095Z,38.30
2018-11-06T11:50:31.473Z,39.23
2018-11-06T11:53:00.854Z,37.97
2018-11-06T11:55:30.195Z,37.73
2018-11-06T11:57:59.505Z,36.43
2018-11-06T12:00:29.561Z,37.58
2018-11-06T12:02:59.171Z,37.23
2018-11-06T12:05:30.390Z,33.98
2018-11-06T12:07:59.762Z,38.60
2018-11-06T12:10:29.231Z,37.98
2018-11-06T12:12:59.188Z,37.13
2018-11-06T12:15:29.160Z,38.53
2018-11-06T12:17:59.182Z,36.35
2018-11-06T12:20:29.265Z,35.50
2018-11-06T12:22:59.138Z,36.08
2018-11-06T12:25:29.299Z,35.85
2018-11-06T12:27:59.229Z,34.53
2018-11-06T12:30:29.227Z,36.85
2018-11-06T12:32:59.149Z,35.95
2018-11-06T12:35:29.213Z,40.05
2018-11-06T12:37:59.209Z,35.65
2018-11-06T12:40:29.201Z,38.80
2018-11-06T12:42:59.296Z,35.83
2018-11-06T12:45:29.287Z,37.80
2018-11-06T12:47:59.170Z,38.35
2018-11-06T12:50:29.229Z,36.30
2018-11-06T12:52:59.224Z,38.67
2018-11-06T12:55:29.224Z,37.63
2018-11-06T12:57:59.214Z,38.38
2018-11-06T13:00:29.318Z,40.30
2018-11-06T13:02:59.318Z,31.75
2018-11-06T13:05:29.241Z,39.35
2018-11-06T13:07:59.257Z,38.38
2018-11-06T13:10:29.297Z,39.67
2018-11-06T13:12:59.252Z,33.73
2018-11-06T13:15:29.368Z,37.17
2018-11-06T13:17:59.363Z,39.38
2018-11-06T13:20:29.247Z,36.48
2018-11-06T13:22:59.341Z,34.80
2018-11-06T13:25:29.427Z,32.95
2018-11-06T13:27:59.190Z,35.40
2018-11-06T13:30:29.367Z,36.00
2018-11-06T13:32:59.292Z,40.77
2018-11-06T13:35:29.347Z,38.95
2018-11-06T13:37:59.248Z,38.55
2018-11-06T13:40:29.310Z,32.78
2018-11-06T13:42:59.417Z,39.03
2018-11-06T13:45:29.488Z,35.17
2018-11-06T13:47:59.380Z,34.40
2018-11-06T13:50:29.421Z,36.93
2018-11-06T13:52:59.293Z,38.88
2018-11-06T13:55:29.388Z,37.38
2018-11-06T13:57:59.339Z,40.05
2018-11-06T14:00:29.397Z,35.58
2018-11-06T14:02:59.386Z,38.38
2018-11-06T14:05:29.452Z,35.63
2018-11-06T14:07:59.310Z,39.90
2018-11-06T14:10:29.449Z,37.42
2018-11-06T14:12:59.310Z,42.40
2018-11-06T14:15:29.375Z,40.75
2018-11-06T14:17:59.426Z,39.38
2018-11-06T14:20:29.503Z,39.50
2018-11-06T14:22:59.499Z,42.90
2018-11-06T14:25:29.453Z,46.23
2018-11-06T14:27:59.415Z,45.88
2018-11-06T14:30:29.474Z,45.38
2018-11-06T14:32:59.507Z,43.75
2018-11-06T14:35:29.533Z,41.77
2018-11-06T14:37:59.486Z,38.20
2018-11-06T14:40:29.447Z,47.55
2018-11-06T14:42:59.469Z,39.30
2018-11-06T14:45:29.489Z,41.58
2018-11-06T14:47:59.518Z,42.55
2018-11-06T14:50:29.555Z,45.63
2018-11-06T14:53:02.550Z,42.75
2018-11-06T14:55:31.842Z,44.13
2018-11-06T14:58:01.267Z,41.53
2018-11-06T15:00:30.677Z,47.47
2018-11-06T15:03:00.032Z,42.33
2018-11-06T15:05:29.574Z,35.35
2018-11-06T15:07:59.564Z,39.15
2018-11-06T15:10:29.918Z,42.78
2018-11-06T15:12:59.422Z,36.23
2018-11-06T15:15:29.574Z,42.43
2018-11-06T15:17:59.495Z,42.98
2018-11-06T15:20:29.576Z,39.27
2018-11-06T15:22:59.477Z,39.40
2018-11-06T15:25:29.639Z,42.67
2018-11-06T15:27:59.494Z,41.53
2018-11-06T15:30:29.618Z,45.58
2018-11-06T15:32:59.532Z,44.10
2018-11-06T15:35:29.602Z,42.60
2018-11-06T15:37:59.654Z,41.90
2018-11-06T15:40:29.666Z,40.17
2018-11-06T15:42:59.555Z,43.25
2018-11-06T15:45:29.652Z,40.78
2018-11-06T15:47:59.529Z,39.48
2018-11-06T15:50:29.634Z,37.95
2018-11-06T15:52:59.628Z,39.35
2018-11-06T15:55:29.627Z,40.73
2018-11-06T15:57:59.738Z,37.73
2018-11-06T16:00:29.706Z,39.70
2018-11-06T16:02:59.640Z,42.13
2018-11-06T16:05:29.676Z,46.83
2018-11-06T16:07:59.697Z,46.40
2018-11-06T16:10:30.052Z,47.67
2018-11-06T16:12:59.706Z,46.85
2018-11-06T16:15:29.936Z,49.08
2018-11-06T16:17:59.609Z,49.93
2018-11-06T16:20:29.641Z,48.55
2018-11-06T16:22:59.687Z,46.68
2018-11-06T16:25:29.763Z,52.75
2018-11-06T16:27:59.709Z,49.30
2018-11-06T16:30:29.653Z,51.65
2018-11-06T16:32:59.805Z,49.35
2018-11-06T16:35:29.729Z,49.75
2018-11-06T16:37:59.827Z,51.25
2018-11-06T16:40:29.846Z,53.55
2018-11-06T16:42:59.937Z,53.75
2018-11-06T16:45:29.906Z,49.58
2018-11-06T16:47:59.860Z,47.98
2018-11-06T16:50:29.911Z,51.25
2018-11-06T16:52:59.995Z,51.23
2018-11-06T16:55:29.907Z,45.65
2018-11-06T16:58:00.027Z,49.85
2018-11-06T17:00:30.182Z,50.35
2018-11-06T17:03:00.192Z,50.35
2018-11-06T17:05:30.118Z,51.75
2018-11-06T17:08:00.208Z,50.55
2018-11-06T17:10:30.336Z,50.00
2018-11-06T17:13:00.206Z,52.55
2018-11-06T17:15:30.142Z,54.23
2018-11-06T17:18:00.127Z,62.53
2018-11-06T17:20:30.148Z,55.73
2018-11-06T17:23:00.241Z,50.98
2018-11-06T17:25:30.372Z,48.42
2018-11-06T17:28:00.241Z,56.85
2018-11-06T17:30:30.719Z,53.33
2018-11-06T17:33:00.645Z,52.62
2018-11-06T17:35:30.483Z,51.55
2018-11-06T17:38:00.426Z,50.40
2018-11-06T17:40:30.515Z,50.25
2018-11-06T17:43:00.566Z,53.83
2018-11-06T17:45:30.649Z,50.78
2018-11-06T17:48:00.960Z,52.17
2018-11-06T17:50:30.912Z,56.88
2018-11-06T17:53:00.935Z,53.68
2018-11-06T17:55:31.033Z,55.65
2018-11-06T17:58:01.271Z,52.15
2018-11-06T18:00:31.234Z,49.80
2018-11-06T18:03:01.210Z,48.42
2018-11-06T18:05:31.185Z,47.62
2018-11-06T18:08:01.134Z,46.42
2018-11-06T18:10:31.331Z,44.48
2018-11-06T18:13:01.207Z,46.45
2018-11-06T18:15:31.157Z,50.10
2018-11-06T18:18:01.419Z,45.43
2018-11-06T18:20:31.212Z,48.87
2018-11-06T18:23:01.245Z,47.70
2018-11-06T18:25:38.068Z,51.58
2018-11-06T18:28:07.547Z,49.93
2018-11-06T18:30:36.922Z,48.87
2018-11-06T18:33:06.516Z,51.28
2018-11-06T18:35:35.877Z,49.58
2018-11-06T18:38:05.342Z,48.50
2018-11-06T18:40:34.683Z,47.83
2018-11-06T18:43:04.037Z,43.27
2018-11-06T18:45:33.408Z,45.93
2018-11-06T18:48:02.782Z,46.33
2018-11-06T18:50:32.149Z,44.83
2018-11-06T18:53:01.530Z,45.17
2018-11-06T18:55:31.687Z,42.85
2018-11-06T18:58:01.717Z,44.15
2018-11-06T19:00:31.732Z,41.25
2018-11-06T19:03:01.789Z,44.05
2018-11-06T19:05:31.808Z,41.73
2018-11-06T19:08:01.842Z,41.83
2018-11-06T19:10:31.877Z,41.18
2018-11-06T19:13:01.986Z,40.98
2018-11-06T19:15:31.929Z,42.45
2018-11-06T19:18:02.101Z,40.48
2018-11-06T19:20:31.996Z,40.85
2018-11-06T19:23:03.215Z,46.77
2018-11-06T19:25:32.525Z,47.43
2018-11-06T19:28:02.616Z,45.10
2018-11-06T19:30:39.218Z,52.03
2018-11-06T19:33:08.507Z,50.90
2018-11-06T19:35:37.864Z,58.35
2018-11-06T19:38:07.324Z,54.25
2018-11-06T19:40:36.912Z,57.23
2018-11-06T19:43:06.318Z,54.53
2018-11-06T19:45:35.903Z,49.85
2018-11-06T19:48:05.851Z,52.77
2018-11-06T19:50:35.466Z,53.00
2018-11-06T19:53:05.258Z,60.77
2018-11-06T19:55:34.876Z,63.47
2018-11-06T19:58:04.641Z,59.47
2018-11-06T20:00:34.310Z,59.73
2018-11-06T20:03:04.162Z,55.43
2018-11-06T20:05:33.885Z,57.37
2018-11-06T20:08:03.603Z,54.07
2018-11-06T20:10:33.159Z,58.17
2018-11-06T20:13:03.245Z,55.38
2018-11-06T20:15:34.032Z,51.70
2018-11-06T20:18:03.853Z,52.73
2018-11-06T20:20:33.914Z,53.15
2018-11-06T20:23:03.958Z,48.42
2018-11-06T20:25:34.446Z,47.30
2018-11-06T20:28:04.324Z,51.63
2018-11-06T20:30:34.251Z,51.20
2018-11-06T20:33:04.744Z,50.73
2018-11-06T20:35:34.365Z,57.03
2018-11-06T20:38:04.471Z,53.73
2018-11-06T20:40:34.386Z,53.15
2018-11-06T20:43:04.905Z,60.28
2018-11-06T20:45:34.863Z,55.52
2018-11-06T20:48:04.889Z,52.62
2018-11-06T20:50:35.245Z,57.20
2018-11-06T20:53:05.128Z,57.55
2018-11-06T20:55:34.967Z,55.63
2018-11-06T20:58:04.875Z,55.73
2018-11-06T21:00:35.440Z,57.35
2018-11-06T21:03:05.613Z,57.85
2018-11-06T21:05:35.476Z,54.05
2018-11-06T21:08:05.883Z,58.87
2018-11-06T21:10:35.699Z,60.20
2018-11-06T21:13:06.168Z,62.30
2018-11-06T21:15:35.687Z,54.40
2018-11-06T21:18:05.998Z,51.98
2018-11-06T21:20:35.901Z,53.55
2018-11-06T21:23:05.908Z,58.63
2018-11-06T21:25:36.300Z,58.23
2018-11-06T21:28:06.494Z,59.25
2018-11-06T21:30:36.157Z,62.10
2018-11-06T21:33:06.288Z,60.08
2018-11-06T21:35:36.204Z,59.05
2018-11-06T21:38:06.248Z,62.75
2018-11-06T21:40:36.216Z,57.40
2018-11-06T21:43:06.333Z,60.90
2018-11-06T21:45:36.334Z,55.95
2018-11-06T21:48:06.658Z,60.40
2018-11-06T21:50:36.261Z,58.45
2018-11-06T21:53:06.932Z,55.38
2018-11-06T21:55:36.665Z,58.10
2018-11-06T21:58:06.855Z,61.13
2018-11-06T22:00:36.783Z,64.85
2018-11-06T22:03:06.786Z,60.55
2018-11-06T22:05:36.920Z,56.00
2018-11-06T22:08:06.792Z,55.78
2018-11-06T22:10:37.425Z,58.13
2018-11-06T22:13:07.648Z,57.17
2018-11-06T22:15:37.854Z,58.87
2018-11-06T22:18:07.568Z,55.60
2018-11-06T22:20:37.626Z,53.92
2018-11-06T22:23:07.679Z,59.27
2018-11-06T22:25:37.007Z,58.27
2018-11-06T22:28:06.672Z,56.57
2018-11-06T22:30:35.965Z,61.33
2018-11-06T22:33:09.862Z,58.23
2018-11-06T22:35:39.140Z,68.40
2018-11-06T22:38:08.578Z,64.90
2018-11-06T22:40:37.901Z,66.10
2018-11-06T22:43:07.277Z,64.30
2018-11-06T22:45:36.634Z,59.60
2018-11-06T22:48:06.024Z,60.57
2018-11-06T22:50:35.379Z,58.52
2018-11-06T22:53:04.816Z,60.20
2018-11-06T22:55:34.203Z,60.70
2018-11-06T22:58:03.600Z,56.83
2018-11-06T23:00:38.247Z,57.13
2018-11-06T23:03:11.576Z,66.83
2018-11-06T23:05:41.272Z,60.53
2018-11-06T23:08:15.967Z,62.73
2018-11-06T23:10:46.242Z,59.03
2018-11-06T23:13:15.523Z,59.38
2018-11-06T23:15:44.899Z,62.57
2018-11-06T23:18:14.233Z,60.40
2018-11-06T23:20:43.630Z,63.13
2018-11-06T23:23:13.033Z,58.13
2018-11-06T23:25:42.436Z,60.03
2018-11-06T23:28:11.842Z,61.03
2018-11-06T23:30:41.187Z,65.40
2018-11-06T23:33:10.548Z,60.40
2018-11-06T23:35:39.928Z,59.20
2018-11-06T23:38:09.285Z,62.20
2018-11-06T23:40:38.623Z,64.27
2018-11-06T23:43:07.943Z,68.83
2018-11-06T23:45:37.329Z,62.97
2018-11-06T23:48:06.722Z,62.07
2018-11-06T23:50:36.079Z,62.30
2018-11-06T23:53:05.653Z,59.10
2018-11-06T23:55:35.080Z,61.57
2018-11-06T23:58:04.439Z,65.13
